Time;durP1;ratioP1;P1;durP2;ratioP2;P2;SDS_P1;SDS_P2;PMS_P1;PMS_P2;Temp;Humidity;BMP_temperature;BMP_pressure;BME280_temperature;BME280_humidity;BME280_pressure;Samples;Min_cycle;Max_cycle;Signal;HPM_P1;HPM_P2
2022/06/25 00:02:16;;;;;;;2.90;2.70;;;;;;;16.09;100.00;155495.38;5011180;28;20439;-76
2022/06/25 00:07:27;;;;;;;2.80;2.60;;;;;;;15.99;100.00;155468.06;5012477;28;20452;-76
2022/06/25 00:09:55;;;;;;;2.80;2.60;;;;;;;15.98;100.00;155465.44;5012400;28;20899;-76
2022/06/25 00:12:32;;;;;;;3.43;3.00;;;;;;;15.95;100.00;155458.94;5004632;28;20540;-76
2022/06/25 00:14:59;;;;;;;3.53;3.20;;;;;;;15.92;100.00;155449.81;5012803;28;20507;-76
2022/06/25 00:17:26;;;;;;;3.30;2.70;;;;;;;15.91;100.00;155448.56;5025585;28;20452;-75
2022/06/25 00:19:53;;;;;;;3.43;3.13;;;;;;;15.96;100.00;155460.25;5010168;28;20889;-76
2022/06/25 00:22:20;;;;;;;3.20;2.53;;;;;;;15.95;100.00;155458.94;5029160;28;20806;-75
2022/06/25 00:24:46;;;;;;;2.60;2.40;;;;;;;15.92;100.00;155449.81;5012912;28;20452;-75
2022/06/25 00:27:14;;;;;;;3.50;2.80;;;;;;;15.92;100.00;155449.81;5011813;28;20468;-76
2022/06/25 00:29:41;;;;;;;5.70;2.47;;;;;;;15.95;100.00;155458.94;5013249;28;20473;-76
2022/06/25 00:32:10;;;;;;;3.57;3.27;;;;;;;15.92;100.00;155449.81;5028817;28;20491;-76
2022/06/25 00:35:06;;;;;;;3.73;2.73;;;;;;;15.94;100.00;155455.06;5028648;28;20451;-76
2022/06/25 00:37:33;;;;;;;2.60;2.40;;;;;;;15.91;100.00;155448.56;5027366;28;20587;-74
2022/06/25 00:40:00;;;;;;;3.20;2.80;;;;;;;15.89;100.00;155443.31;5018660;28;20551;-76
2022/06/25 00:42:28;;;;;;;3.00;2.47;;;;;;;15.91;100.00;155447.25;5024030;28;20444;-75
2022/06/25 00:44:55;;;;;;;4.57;2.40;;;;;;;15.91;100.00;155447.25;5026572;28;20937;-76
2022/06/25 00:47:23;;;;;;;2.93;2.63;;;;;;;15.90;100.00;155444.63;5011830;28;21098;-76
2022/06/25 00:49:50;;;;;;;3.17;2.77;;;;;;;15.88;100.00;155439.44;5028068;28;20500;-76
2022/06/25 00:52:18;;;;;;;3.03;2.77;;;;;;;15.79;100.00;155418.63;5006016;28;20540;-76
2022/06/25 00:54:50;;;;;;;3.10;2.80;;;;;;;15.75;100.00;155408.22;4998168;28;20559;-76
2022/06/25 00:57:19;;;;;;;3.80;2.63;;;;;;;15.78;100.00;155416.03;5011555;28;20463;-75
2022/06/25 00:59:50;;;;;;;3.30;3.00;;;;;;;15.77;100.00;155412.13;5007202;28;20778;-75
2022/06/25 01:02:16;;;;;;;2.67;2.43;;;;;;;15.76;100.00;155410.84;4993832;28;20505;-76
2022/06/25 01:04:43;;;;;;;3.03;2.73;;;;;;;15.75;100.00;155406.97;5026069;28;20491;-76
2022/06/25 01:07:10;;;;;;;2.93;2.63;;;;;;;15.75;100.00;155406.97;5012042;28;20539;-76
2022/06/25 01:09:38;;;;;;;2.80;2.60;;;;;;;15.72;100.00;155399.16;5010456;28;20484;-76
2022/06/25 01:12:06;;;;;;;2.90;2.57;;;;;;;15.69;100.00;155392.66;4983212;28;20546;-76
2022/06/25 01:14:32;;;;;;;2.83;2.63;;;;;;;15.68;100.00;155390.03;5020152;28;20958;-76
2022/06/25 01:17:05;;;;;;;3.30;3.00;;;;;;;15.72;100.00;155400.47;4995500;28;20448;-76
2022/06/25 01:19:33;;;;;;;2.93;2.70;;;;;;;15.69;100.00;155391.34;5006288;28;20477;-76
2022/06/25 01:22:01;;;;;;;3.07;2.87;;;;;;;15.65;100.00;155382.22;5008589;28;20467;-75
2022/06/25 01:24:28;;;;;;;3.13;2.83;;;;;;;15.61;100.00;155370.53;5009037;28;20451;-75
2022/06/25 01:26:55;;;;;;;3.00;2.60;;;;;;;15.60;100.00;155367.91;5024942;28;20685;-75
2022/06/25 01:29:21;;;;;;;5.43;3.07;;;;;;;15.59;100.00;155366.66;5008123;28;20576;-76
2022/06/25 01:31:48;;;;;;;2.83;2.53;;;;;;;15.56;100.00;155358.84;4975351;28;20488;-76
2022/06/25 01:34:16;;;;;;;6.57;2.90;;;;;;;15.52;100.00;155348.44;4990679;28;20461;-75
2022/06/25 01:36:42;;;;;;;3.30;2.40;;;;;;;15.51;100.00;155344.56;5027961;28;20468;-76
2022/06/25 01:39:11;;;;;;;6.17;2.50;;;;;;;15.52;100.00;155347.13;5011322;28;20443;-76
2022/06/25 01:41:37;;;;;;;3.80;2.60;;;;;;;15.49;100.00;155340.63;5029384;28;20454;-76
2022/06/25 01:44:04;;;;;;;5.43;2.37;;;;;;;15.44;100.00;155326.28;5008669;28;20443;-76
2022/06/25 01:46:31;;;;;;;3.80;2.60;;;;;;;15.43;100.00;155325.00;5039659;28;20540;-75
2022/06/25 01:48:58;;;;;;;2.63;2.43;;;;;;;15.44;100.00;155327.59;5011969;28;20919;-76
2022/06/25 01:51:24;;;;;;;2.70;2.33;;;;;;;15.42;100.00;155322.41;5011173;28;20473;-75
2022/06/25 01:53:52;;;;;;;3.80;2.60;;;;;;;15.42;100.00;155322.41;4992410;28;20552;-75
2022/06/25 01:56:20;;;;;;;3.10;2.53;;;;;;;15.41;100.00;155318.53;5012034;28;20444;-76
2022/06/25 01:58:47;;;;;;;3.43;2.93;;;;;;;15.39;100.00;155314.59;5026597;28;20532;-75
2022/06/25 02:01:14;;;;;;;3.87;2.83;;;;;;;15.36;100.00;155306.78;4992985;28;20969;-76
2022/06/25 02:03:41;;;;;;;3.00;2.43;;;;;;;15.34;100.00;155300.28;4994121;28;20555;-75
2022/06/25 02:06:11;;;;;;;3.23;2.93;;;;;;;15.36;100.00;155305.47;5009790;28;20472;-75
2022/06/25 02:08:38;;;;;;;2.87;2.60;;;;;;;15.29;100.00;155288.63;5012020;28;20433;-76
2022/06/25 02:11:07;;;;;;;3.27;2.97;;;;;;;15.35;100.00;155304.22;5024927;28;20500;-76
2022/06/25 02:13:35;;;;;;;3.67;2.60;;;;;;;15.32;100.00;155296.41;5026949;28;20938;-76
2022/06/25 02:16:05;;;;;;;3.10;2.77;;;;;;;15.27;100.00;155282.13;5010880;28;20459;-75
2022/06/25 02:18:36;;;;;;;3.10;2.80;;;;;;;15.26;100.00;155280.81;5026722;28;20460;-76
2022/06/25 02:21:04;;;;;;;3.43;2.90;;;;;;;15.22;100.00;155270.44;4975068;28;20802;-75
2022/06/25 02:23:32;;;;;;;3.43;2.70;;;;;;;15.22;100.00;155271.69;5007140;28;20540;-76
2022/06/25 02:25:58;;;;;;;3.70;3.30;;;;;;;15.22;100.00;155270.44;4995771;28;20469;-75
2022/06/25 02:28:26;;;;;;;3.90;2.77;;;;;;;15.18;100.00;155260.00;5012336;28;20959;-76
2022/06/25 02:30:54;;;;;;;3.47;3.17;;;;;;;15.12;100.00;155245.72;5010786;28;20559;-76
2022/06/25 02:33:21;;;;;;;2.90;2.57;;;;;;;15.14;100.00;155250.91;5017686;28;20970;-76
2022/06/25 02:35:47;;;;;;;3.33;3.03;;;;;;;15.11;100.00;155243.16;5023421;28;20488;-76
2022/06/25 02:38:16;;;;;;;4.40;3.40;;;;;;;15.13;100.00;155247.03;4999689;28;20456;-76
2022/06/25 02:40:47;;;;;;;4.87;3.10;;;;;;;15.10;100.00;155240.53;5004694;28;20452;-75
2022/06/25 02:43:14;;;;;;;3.13;2.80;;;;;;;15.09;100.00;155236.66;4993398;28;20433;-76
2022/06/25 02:45:44;;;;;;;4.20;3.07;;;;;;;15.06;100.00;155228.84;5035820;28;20449;-76
2022/06/25 02:48:14;;;;;;;2.90;2.70;;;;;;;15.07;100.00;155231.41;4992324;28;20936;-73
2022/06/25 02:50:42;;;;;;;3.17;2.73;;;;;;;15.06;100.00;155230.09;5023970;28;20546;-76
2022/06/25 02:53:11;;;;;;;3.67;3.10;;;;;;;15.03;100.00;155222.34;5011633;28;20413;-76
2022/06/25 03:01:07;;;;;;;3.23;2.93;;;;;;;15.04;100.00;155224.94;4990762;28;20441;-76
2022/06/25 03:03:37;;;;;;;2.60;2.33;;;;;;;15.06;100.00;155228.84;5010062;28;20804;-76
2022/06/25 03:06:04;;;;;;;4.70;3.00;;;;;;;15.05;100.00;155227.53;5020062;28;20448;-76
2022/06/25 03:08:30;;;;;;;3.77;3.47;;;;;;;15.05;100.00;155226.22;4997022;28;20433;-76
2022/06/25 03:10:57;;;;;;;3.37;3.07;;;;;;;15.06;100.00;155228.84;5010277;28;20511;-73
2022/06/25 03:13:24;;;;;;;3.27;2.93;;;;;;;15.06;100.00;155228.84;5003395;28;20468;-76
2022/06/25 03:15:51;;;;;;;3.50;3.20;;;;;;;15.08;100.00;155234.03;5026047;28;20507;-73
2022/06/25 03:18:19;;;;;;;4.30;3.33;;;;;;;15.06;100.00;155228.84;4987730;28;20450;-75
2022/06/25 03:21:05;;;;;;;4.60;2.83;;;;;;;15.06;100.00;155230.09;5023971;28;20574;-74
2022/06/25 03:23:35;;;;;;;3.00;2.70;;;;;;;15.05;100.00;155226.22;5006903;28;20476;-74
2022/06/25 03:26:02;;;;;;;3.20;2.90;;;;;;;15.01;100.00;155217.13;5007313;28;20946;-74
2022/06/25 03:28:29;;;;;;;3.47;2.10;;;;;;;15.02;100.00;155219.75;5010539;28;20547;-74
2022/06/25 03:30:56;;;;;;;3.80;2.70;;;;;;;15.02;100.00;155219.75;5009954;28;20488;-74
2022/06/25 03:33:25;;;;;;;2.73;2.50;;;;;;;15.01;100.00;155217.13;5013215;28;20456;-73
2022/06/25 03:36:11;;;;;;;3.67;3.37;;;;;;;15.01;100.00;155215.88;5029703;28;20475;-76
2022/06/25 03:38:44;;;;;;;3.57;2.80;;;;;;;15.03;100.00;155221.03;5013521;28;20445;-76
2022/06/25 03:44:04;;;;;;;3.80;3.10;;;;;;;15.00;100.00;155213.25;5011216;28;20488;-76
2022/06/25 03:46:31;;;;;;;4.83;3.50;;;;;;;15.01;100.00;155215.88;4997622;28;20436;-75
2022/06/25 03:48:58;;;;;;;3.20;2.90;;;;;;;14.99;100.00;155211.94;4997398;28;20425;-75
2022/06/25 03:51:51;;;;;;;3.30;3.00;;;;;;;14.99;100.00;155210.63;5006986;28;20554;-76
2022/06/25 03:54:17;;;;;;;3.10;2.90;;;;;;;15.02;100.00;155218.44;5012548;28;20464;-76
2022/06/25 03:56:44;;;;;;;3.60;3.20;;;;;;;14.99;100.00;155210.63;4996384;28;20903;-75
2022/06/25 03:59:12;;;;;;;3.43;3.13;;;;;;;14.96;100.00;155204.13;5035839;28;20445;-76
2022/06/25 04:01:38;;;;;;;3.70;3.27;;;;;;;14.97;100.00;155205.44;5029362;28;20448;-75
2022/06/25 04:04:07;;;;;;;4.20;3.40;;;;;;;14.99;100.00;155211.94;5010737;28;20526;-76
2022/06/25 04:06:33;;;;;;;3.23;2.70;;;;;;;15.07;100.00;155231.41;5013622;28;20571;-75
2022/06/25 04:09:04;;;;;;;2.93;2.73;;;;;;;15.17;100.00;155257.41;5023508;28;21020;-75
2022/06/25 04:11:33;;;;;;;3.30;3.00;;;;;;;15.39;100.00;155314.59;5011433;28;20544;-76
2022/06/25 04:14:01;;;;;;;3.40;3.10;;;;;;;15.60;100.00;155369.22;5012594;28;20528;-76
2022/06/25 04:16:30;;;;;;;3.40;2.70;;;;;;;15.79;100.00;155418.63;5013355;28;20468;-76
2022/06/25 04:19:05;;;;;;;4.73;3.07;;;;;;;15.96;100.00;155460.25;4993208;28;20457;-76
2022/06/25 04:21:34;;;;;;;3.20;2.90;;;;;;;16.14;100.00;155507.06;5018126;28;20447;-76
2022/06/25 04:24:01;;;;;;;3.10;2.90;;;;;;;16.35;100.00;155561.66;5012363;28;20470;-75
2022/06/25 04:26:31;;;;;;;2.77;2.57;;;;;;;16.57;100.00;155618.97;5012901;28;20452;-76
2022/06/25 04:29:08;;;;;;;2.50;2.30;;;;;;;16.81;100.00;155680.09;5012994;28;20939;-76
2022/06/25 04:31:42;;;;;;;2.80;2.50;;;;;;;17.03;100.00;155738.63;4991157;28;20469;-76
2022/06/25 04:34:15;;;;;;;3.00;2.40;;;;;;;17.30;100.00;155807.63;5023907;28;20445;-75
2022/06/25 04:36:42;;;;;;;2.27;2.07;;;;;;;17.47;100.00;155851.84;5012176;28;20504;-76
2022/06/25 04:39:15;;;;;;;3.37;2.67;;;;;;;17.68;99.16;155905.28;5000704;28;20451;-76
2022/06/25 04:41:45;;;;;;;2.43;2.23;;;;;;;17.84;97.50;155946.97;5009235;28;20507;-76
2022/06/25 04:44:19;;;;;;;4.20;2.53;;;;;;;17.96;95.95;155978.19;5012213;28;20482;-76
2022/06/25 04:46:46;;;;;;;4.40;2.63;;;;;;;18.10;96.38;156013.34;5012653;28;20491;-76
2022/06/25 04:49:17;;;;;;;4.03;2.53;;;;;;;18.27;95.63;156056.34;5006323;28;20553;-76
2022/06/25 04:51:46;;;;;;;6.23;2.33;;;;;;;18.39;93.68;156088.88;5009538;28;20468;-76
2022/06/25 04:54:15;;;;;;;2.40;2.20;;;;;;;18.56;92.90;156131.94;5011900;28;20456;-76
2022/06/25 04:56:54;;;;;;;2.80;2.33;;;;;;;18.62;93.31;156147.53;5023566;28;20444;-76
2022/06/25 04:59:21;;;;;;;2.50;2.10;;;;;;;18.74;93.42;156178.84;5022718;28;20460;-76
2022/06/25 05:01:51;;;;;;;3.80;1.90;;;;;;;18.81;92.37;156197.06;5028752;28;20480;-76
2022/06/25 05:04:20;;;;;;;2.10;1.90;;;;;;;18.82;92.63;156200.94;4995439;28;20495;-73
2022/06/25 05:06:47;;;;;;;2.60;2.40;;;;;;;18.93;91.44;156228.31;5026088;28;20461;-73
2022/06/25 05:09:14;;;;;;;2.30;2.10;;;;;;;19.07;92.37;156264.81;4995648;28;20935;-76
2022/06/25 05:11:43;;;;;;;2.83;2.60;;;;;;;19.20;92.67;156298.69;5022620;28;20476;-75
2022/06/25 05:14:11;;;;;;;8.60;2.20;;;;;;;19.29;90.19;156320.84;5027770;28;20456;-76
2022/06/25 05:16:39;;;;;;;2.03;1.80;;;;;;;19.42;90.46;156356.09;5008592;28;20460;-75
2022/06/25 05:19:06;;;;;;;3.47;2.33;;;;;;;19.48;89.78;156370.44;5004611;28;20460;-76
2022/06/25 05:21:33;;;;;;;3.10;2.30;;;;;;;19.61;88.00;156403.03;4995553;28;20441;-76
2022/06/25 05:24:04;;;;;;;2.63;2.00;;;;;;;19.77;89.32;156444.75;5004423;28;20479;-76
2022/06/25 05:26:32;;;;;;;2.40;1.90;;;;;;;19.93;87.84;156487.78;4994253;28;20468;-76
2022/06/25 05:28:58;;;;;;;2.43;2.23;;;;;;;20.05;87.74;156517.75;5011449;28;20496;-76
2022/06/25 05:31:26;;;;;;;2.97;2.37;;;;;;;20.14;87.34;156541.25;5011175;28;20472;-76
2022/06/25 05:33:54;;;;;;;3.10;2.17;;;;;;;20.21;85.83;156559.50;5010559;28;20854;-76
2022/06/25 05:36:21;;;;;;;2.00;1.90;;;;;;;20.35;85.55;156596.06;4992414;28;20605;-76
2022/06/25 05:38:48;;;;;;;2.33;2.13;;;;;;;20.48;85.62;156628.66;5000211;28;20552;-76
2022/06/25 05:41:14;;;;;;;2.70;2.10;;;;;;;20.61;84.56;156663.91;5026877;28;20768;-76
2022/06/25 05:43:42;;;;;;;1.93;1.83;;;;;;;20.59;84.83;156657.38;5010199;28;20441;-76
2022/06/25 05:46:09;;;;;;;2.10;1.90;;;;;;;20.83;84.03;156718.69;5047494;28;20517;-76
2022/06/25 05:48:37;;;;;;;3.47;2.30;;;;;;;20.98;83.68;156757.81;5047930;28;20529;-75
2022/06/25 05:51:04;;;;;;;2.60;1.83;;;;;;;21.21;82.15;156817.91;5024137;28;20477;-76
2022/06/25 05:53:31;;;;;;;2.40;2.03;;;;;;;21.37;79.90;156858.34;5010282;28;20526;-76
2022/06/25 05:55:57;;;;;;;2.07;1.70;;;;;;;21.57;82.18;156911.91;4998258;28;20548;-76
2022/06/25 05:58:24;;;;;;;2.10;2.00;;;;;;;21.63;80.86;156927.53;5000556;28;20946;-76
2022/06/25 06:00:51;;;;;;;2.90;2.03;;;;;;;21.88;78.93;156991.56;5026589;28;20556;-76
2022/06/25 06:03:18;;;;;;;2.67;1.70;;;;;;;21.98;79.45;157016.38;5026547;28;20449;-76
2022/06/25 06:05:46;;;;;;;3.80;1.70;;;;;;;21.92;77.60;157002.03;5010854;28;20440;-76
2022/06/25 06:08:13;;;;;;;2.30;2.00;;;;;;;21.83;79.32;156978.47;4988353;28;20481;-76
2022/06/25 06:10:39;;;;;;;2.27;2.07;;;;;;;22.00;78.17;157021.63;5019189;28;20822;-76
2022/06/25 06:13:06;;;;;;;2.17;2.00;;;;;;;22.01;78.43;157024.22;5026251;28;20495;-76
2022/06/25 06:15:33;;;;;;;1.80;1.70;;;;;;;22.28;78.97;157096.06;5021565;28;20460;-76
2022/06/25 06:18:00;;;;;;;2.17;1.60;;;;;;;22.66;74.53;157194.09;4991036;28;20468;-76
2022/06/25 06:20:27;;;;;;;2.00;1.80;;;;;;;22.87;72.20;157247.66;5008754;28;20559;-76
2022/06/25 06:22:55;;;;;;;2.20;2.00;;;;;;;22.79;74.75;157228.06;5026160;28;20452;-76
2022/06/25 06:25:21;;;;;;;2.00;1.80;;;;;;;23.02;76.30;157288.16;5010315;28;20554;-76
2022/06/25 06:27:48;;;;;;;2.60;1.80;;;;;;;23.14;71.14;157318.16;5008201;28;20539;-76
2022/06/25 06:30:15;;;;;;;4.87;1.80;;;;;;;23.29;71.49;157356.09;5005295;28;20500;-76
2022/06/25 06:32:42;;;;;;;2.03;1.43;;;;;;;23.38;71.76;157379.63;5009661;28;20900;-76
2022/06/25 06:35:09;;;;;;;2.10;1.70;;;;;;;23.64;67.64;157448.91;5011125;28;20453;-76
2022/06/25 06:37:36;;;;;;;1.63;1.30;;;;;;;23.55;70.33;157424.09;5019636;28;20464;-76
2022/06/25 06:40:05;;;;;;;2.63;1.90;;;;;;;23.59;67.85;157434.53;5010698;28;20454;-76
2022/06/25 06:42:32;;;;;;;2.90;1.80;;;;;;;23.88;68.63;157509.09;5026057;28;20528;-76
2022/06/25 06:44:59;;;;;;;2.50;1.57;;;;;;;24.11;69.51;157570.59;5010380;28;20823;-76
2022/06/25 06:47:25;;;;;;;2.07;1.87;;;;;;;24.13;66.19;157575.81;5006618;28;20430;-76
2022/06/25 06:49:52;;;;;;;1.93;1.73;;;;;;;24.24;69.53;157603.28;5021266;28;20851;-76
2022/06/25 06:52:19;;;;;;;2.37;1.80;;;;;;;24.50;66.03;157671.28;5003881;28;20509;-76
2022/06/25 06:54:45;;;;;;;2.50;1.77;;;;;;;24.35;65.16;157630.75;5027991;28;20463;-76
2022/06/25 06:57:15;;;;;;;2.63;1.63;;;;;;;24.27;65.08;157609.81;5025687;28;20523;-76
2022/06/25 06:59:42;;;;;;;2.43;1.97;;;;;;;24.50;62.92;157669.97;5026429;28;20452;-76
2022/06/25 07:02:09;;;;;;;2.43;1.90;;;;;;;24.57;66.48;157688.31;5023395;28;20528;-76
2022/06/25 07:04:35;;;;;;;2.37;1.63;;;;;;;24.79;65.67;157747.22;5010010;28;20468;-76
2022/06/25 07:07:02;;;;;;;3.70;2.27;;;;;;;25.11;63.31;157829.63;5026082;28;20480;-76
2022/06/25 07:09:29;;;;;;;1.90;1.70;;;;;;;25.19;62.12;157849.25;5010980;28;20864;-76
2022/06/25 07:11:56;;;;;;;2.00;1.60;;;;;;;25.46;62.07;157918.63;5013710;28;20452;-76
2022/06/25 07:14:24;;;;;;;2.80;1.80;;;;;;;25.57;59.41;157947.47;5012342;28;20551;-76
2022/06/25 07:16:50;;;;;;;3.63;2.00;;;;;;;25.80;57.84;158009.00;5026200;28;20446;-76
2022/06/25 07:19:18;;;;;;;3.40;2.17;;;;;;;25.76;57.88;157997.22;5013221;28;20883;-77
2022/06/25 07:21:45;;;;;;;2.47;2.00;;;;;;;25.90;56.92;158033.84;4996031;28;20476;-77
2022/06/25 07:24:12;;;;;;;2.03;1.73;;;;;;;25.68;56.52;157976.28;5025976;28;20488;-77
2022/06/25 07:26:38;;;;;;;2.07;1.80;;;;;;;25.76;58.87;157997.22;5020415;28;21041;-77
2022/06/25 07:29:05;;;;;;;2.00;1.80;;;;;;;25.76;57.93;157998.50;5013846;28;20502;-77
2022/06/25 07:31:33;;;;;;;2.57;2.37;;;;;;;25.83;57.75;158015.53;5014061;28;20548;-77
2022/06/25 07:34:00;;;;;;;2.47;2.00;;;;;;;25.86;56.85;158023.41;5028703;28;20488;-76
2022/06/25 07:36:26;;;;;;;2.30;2.10;;;;;;;25.95;55.59;158046.94;5017200;28;20522;-77
2022/06/25 07:38:53;;;;;;;4.60;2.00;;;;;;;25.74;55.79;157993.28;5017621;28;20452;-77
2022/06/25 07:41:20;;;;;;;3.00;2.20;;;;;;;25.85;56.06;158022.09;5042626;28;20478;-77
2022/06/25 07:43:47;;;;;;;2.00;1.80;;;;;;;25.94;55.46;158044.34;5049191;28;20443;-77
2022/06/25 07:46:14;;;;;;;2.00;1.80;;;;;;;25.79;55.51;158006.38;5028572;28;20471;-77
2022/06/25 07:48:42;;;;;;;2.73;2.30;;;;;;;26.05;54.28;158073.16;5029245;28;20435;-77
2022/06/25 07:53:53;;;;;;;2.47;1.80;;;;;;;26.31;54.29;158139.97;5027139;28;20515;-77
2022/06/25 07:56:20;;;;;;;2.73;1.90;;;;;;;26.61;55.44;158219.84;5014124;28;20428;-77
2022/06/25 07:58:47;;;;;;;2.57;2.33;;;;;;;26.84;54.29;158277.56;5013948;28;20464;-77
2022/06/25 08:01:17;;;;;;;3.20;2.03;;;;;;;26.35;57.50;158150.44;5012601;28;20476;-77
2022/06/25 08:03:45;;;;;;;2.53;2.33;;;;;;;25.67;56.41;157973.66;5024971;28;21320;-77
2022/06/25 08:06:12;;;;;;;2.70;2.33;;;;;;;25.31;59.72;157881.97;5014457;28;20575;-77
2022/06/25 08:08:41;;;;;;;2.30;2.10;;;;;;;25.56;57.14;157946.16;5008925;28;20447;-77
2022/06/25 08:11:29;;;;;;;3.60;2.33;;;;;;;25.79;58.38;158005.03;5026535;28;20603;-78
2022/06/25 08:13:59;;;;;;;4.10;2.70;;;;;;;25.30;57.60;157878.06;5009754;28;20486;-77
2022/06/25 08:16:29;;;;;;;2.90;2.50;;;;;;;25.53;56.15;157938.31;5023770;28;20449;-77
2022/06/25 08:18:57;;;;;;;2.47;2.27;;;;;;;26.14;54.51;158096.75;5009915;28;20458;-77
2022/06/25 08:21:24;;;;;;;2.63;2.43;;;;;;;25.26;56.17;157867.56;5027974;28;20448;-77
2022/06/25 08:23:51;;;;;;;2.50;2.30;;;;;;;24.95;59.29;157786.44;5027922;28;20456;-77
2022/06/25 08:26:21;;;;;;;3.10;2.10;;;;;;;25.20;57.91;157851.91;5025600;28;20448;-77
2022/06/25 08:28:50;;;;;;;2.73;2.53;;;;;;;25.36;57.09;157893.78;5029857;28;20492;-77
2022/06/25 08:31:19;;;;;;;3.00;2.40;;;;;;;25.42;56.61;157910.75;5009054;28;20485;-77
2022/06/25 08:33:46;;;;;;;2.60;2.30;;;;;;;25.94;56.64;158044.34;5012083;28;20449;-77
2022/06/25 08:36:22;;;;;;;2.97;2.10;;;;;;;25.95;56.24;158046.94;5022086;28;20820;-78
2022/06/25 08:38:51;;;;;;;2.20;2.00;;;;;;;26.23;55.60;158120.34;5015560;28;20484;-79
2022/06/25 08:41:21;;;;;;;2.03;1.83;;;;;;;26.26;55.30;158128.22;5013408;28;20439;-77
2022/06/25 08:43:49;;;;;;;4.00;2.40;;;;;;;25.96;54.53;158049.59;5005318;28;20449;-77
2022/06/25 08:46:16;;;;;;;3.20;2.00;;;;;;;25.70;55.92;157982.81;5032265;28;20467;-78
2022/06/25 08:48:43;;;;;;;2.40;2.20;;;;;;;25.61;53.75;157957.94;5029834;28;20537;-78
2022/06/25 08:51:10;;;;;;;2.50;2.30;;;;;;;25.93;54.71;158041.72;5013275;28;20499;-78
2022/06/25 08:53:39;;;;;;;2.10;1.90;;;;;;;26.44;55.50;158174.03;5029310;28;20491;-78
2022/06/25 08:56:06;;;;;;;2.63;2.43;;;;;;;26.01;54.34;158064.00;5011070;28;20467;-78
2022/06/25 08:58:37;;;;;;;2.57;1.90;;;;;;;26.07;56.28;158078.41;5010461;28;20453;-79
2022/06/25 09:01:03;;;;;;;2.50;2.30;;;;;;;26.46;53.19;158180.56;5010171;28;20452;-82
2022/06/25 09:03:30;;;;;;;2.60;2.40;;;;;;;26.53;53.65;158198.91;5027959;28;20550;-82
2022/06/25 09:05:57;;;;;;;2.50;2.30;;;;;;;26.12;53.91;158091.47;5011633;28;20453;-78
2022/06/25 09:08:24;;;;;;;3.37;2.20;;;;;;;26.08;54.29;158080.97;5010284;28;20535;-78
2022/06/25 09:10:55;;;;;;;3.10;1.90;;;;;;;26.15;53.19;158098.06;5027642;28;20438;-78
2022/06/25 09:13:25;;;;;;;2.20;2.00;;;;;;;26.67;52.01;158232.94;5012652;28;20464;-78
2022/06/25 09:15:51;;;;;;;3.43;2.43;;;;;;;26.27;52.06;158130.81;5007297;28;20452;-78
2022/06/25 09:18:19;;;;;;;2.10;1.90;;;;;;;26.27;49.82;158129.47;5011759;28;20432;-78
2022/06/25 09:21:00;;;;;;;3.10;2.00;;;;;;;26.67;51.26;158232.94;5028180;28;20467;-78
2022/06/25 09:23:27;;;;;;;2.23;2.03;;;;;;;26.62;50.42;158221.16;5009920;28;20997;-78
2022/06/25 09:26:04;;;;;;;3.03;2.23;;;;;;;26.46;51.55;158179.25;5027283;28;20453;-78
2022/06/25 09:28:31;;;;;;;1.90;1.80;;;;;;;26.71;51.35;158244.78;5019211;28;20877;-81
2022/06/25 09:30:58;;;;;;;2.53;2.30;;;;;;;26.42;49.50;158170.06;5022910;28;20441;-78
2022/06/25 09:33:26;;;;;;;4.10;2.50;;;;;;;26.76;51.09;158257.88;5024110;28;20469;-81
2022/06/25 09:35:55;;;;;;;2.30;2.10;;;;;;;26.98;51.99;158315.53;5010446;28;20465;-81
2022/06/25 09:38:22;;;;;;;2.70;2.33;;;;;;;26.69;50.83;158239.50;5008931;28;20438;-82
2022/06/25 09:40:50;;;;;;;2.90;2.00;;;;;;;25.90;52.88;158033.84;5010955;28;20448;-82
2022/06/25 09:43:20;;;;;;;2.00;1.80;;;;;;;26.44;53.09;158175.34;5011079;28;20522;-82
2022/06/25 09:45:48;;;;;;;2.10;2.00;;;;;;;27.06;50.57;158335.16;5010825;28;20536;-78
2022/06/25 09:48:21;;;;;;;2.50;2.13;;;;;;;26.90;49.59;158293.28;5022108;28;20460;-78
2022/06/25 09:51:06;;;;;;;2.60;2.40;;;;;;;26.63;49.90;158225.09;5010346;28;20488;-78
2022/06/25 09:53:33;;;;;;;2.43;2.23;;;;;;;26.44;49.86;158174.03;5023682;28;20500;-78
2022/06/25 09:56:01;;;;;;;2.87;2.10;;;;;;;26.16;50.36;158101.97;5010373;28;20460;-78
2022/06/25 09:58:31;;;;;;;2.57;2.23;;;;;;;26.68;50.57;158235.59;5027485;28;20460;-78
2022/06/25 10:00:58;;;;;;;3.13;2.70;;;;;;;27.02;48.72;158324.72;5028518;28;20527;-78
2022/06/25 10:03:25;;;;;;;2.60;2.40;;;;;;;26.37;49.13;158156.97;5009457;28;20455;-77
2022/06/25 10:05:53;;;;;;;3.07;2.30;;;;;;;25.70;49.68;157981.50;5005351;28;20441;-77
2022/06/25 10:08:21;;;;;;;2.47;2.27;;;;;;;25.41;51.94;157908.19;5010486;28;20444;-77
2022/06/25 10:10:49;;;;;;;2.90;2.40;;;;;;;25.22;53.23;157858.44;5007121;28;20858;-77
2022/06/25 10:13:16;;;;;;;3.00;2.73;;;;;;;25.42;53.04;157910.75;5024561;28;20479;-77
2022/06/25 10:15:47;;;;;;;2.57;2.37;;;;;;;26.15;51.68;158098.06;5026393;28;20511;-77
2022/06/25 10:18:14;;;;;;;2.53;2.33;;;;;;;26.21;50.57;158115.06;5027796;28;20447;-77
2022/06/25 10:20:43;;;;;;;2.60;2.40;;;;;;;26.15;49.25;158098.06;5024500;28;20535;-77
2022/06/25 10:23:11;;;;;;;2.63;2.43;;;;;;;26.73;50.55;158248.69;5001175;28;20453;-77
2022/06/25 10:25:38;;;;;;;5.43;2.70;;;;;;;26.94;50.99;158303.75;5013056;28;20420;-77
2022/06/25 10:28:11;;;;;;;3.10;2.40;;;;;;;26.73;50.56;158250.00;4995048;28;20429;-77
2022/06/25 10:30:46;;;;;;;2.40;2.20;;;;;;;26.62;53.86;158221.16;5008031;28;20445;-77
2022/06/25 10:33:13;;;;;;;2.90;2.70;;;;;;;26.57;50.06;158209.41;5025115;28;20460;-77
2022/06/25 10:35:41;;;;;;;2.50;2.30;;;;;;;26.85;48.34;158281.47;5026892;28;20475;-77
2022/06/25 10:38:09;;;;;;;2.47;2.27;;;;;;;26.74;48.30;158251.31;5024522;28;20487;-77
2022/06/25 10:40:48;;;;;;;3.30;2.50;;;;;;;25.63;50.87;157963.19;5009765;28;20460;-77
2022/06/25 10:43:42;;;;;;;2.50;2.30;;;;;;;25.84;51.09;158018.19;5025128;28;20563;-77
2022/06/25 10:46:38;;;;;;;2.20;2.00;;;;;;;25.67;51.97;157974.97;5025034;28;20465;-77
2022/06/25 10:49:07;;;;;;;3.40;3.10;;;;;;;25.50;53.51;157929.13;5023089;28;20461;-77
2022/06/25 10:51:43;;;;;;;4.20;2.50;;;;;;;25.78;52.48;158003.78;5007604;28;20551;-83
2022/06/25 10:54:14;;;;;;;7.40;2.90;;;;;;;25.78;49.96;158003.78;5023539;28;20462;-83
2022/06/25 10:56:46;;;;;;;3.00;2.80;;;;;;;25.87;51.93;158027.31;5025115;28;20463;-82
2022/06/25 10:59:46;;;;;;;3.43;2.40;;;;;;;25.50;51.47;157929.13;5009767;28;20452;-83
2022/06/25 11:02:15;;;;;;;3.50;3.20;;;;;;;25.08;53.11;157821.78;5025403;28;20555;-83
2022/06/25 11:04:49;;;;;;;4.13;2.70;;;;;;;25.09;54.47;157823.09;5010338;28;20532;-83
2022/06/25 11:07:17;;;;;;;3.00;2.77;;;;;;;25.37;54.81;157896.38;5025103;28;20994;-83
2022/06/25 11:09:56;;;;;;;3.47;2.70;;;;;;;25.36;52.44;157893.78;5009740;28;20440;-83
2022/06/25 11:12:23;;;;;;;2.70;2.50;;;;;;;24.91;52.50;157776.00;5009164;28;20484;-83
2022/06/25 11:14:51;;;;;;;3.20;2.40;;;;;;;25.11;52.38;157829.63;5019311;28;20459;-83
2022/06/25 11:17:23;;;;;;;2.40;2.20;;;;;;;25.50;51.38;157929.13;5008571;28;21029;-83
2022/06/25 11:19:50;;;;;;;2.90;2.70;;;;;;;25.68;49.95;157976.28;5006260;28;20951;-83
2022/06/25 11:22:16;;;;;;;2.60;2.40;;;;;;;25.20;49.66;157853.22;5007331;28;20461;-83
2022/06/25 11:28:47;;;;;;;2.77;2.57;;;;;;;25.33;50.31;157887.22;5009018;28;20539;-82
2022/06/25 11:30:21;;;;;;;3.10;2.80;;;;;;;24.92;52.29;157779.91;5003434;28;20461;-82
2022/06/25 11:32:49;;;;;;;3.23;2.67;;;;;;;25.03;50.19;157807.38;5023307;28;20974;-82
2022/06/25 11:35:16;;;;;;;2.63;2.23;;;;;;;25.26;50.07;157868.88;5007150;28;20466;-82
2022/06/25 11:37:43;;;;;;;2.60;2.40;;;;;;;25.65;50.27;157968.44;5009333;28;20837;-82
2022/06/25 11:40:14;;;;;;;3.07;2.87;;;;;;;25.44;50.29;157916.00;5007245;28;20499;-82
2022/06/25 11:42:41;;;;;;;2.80;2.60;;;;;;;25.35;52.78;157891.13;5023307;28;20461;-82
2022/06/25 11:45:08;;;;;;;3.07;2.20;;;;;;;25.47;53.51;157921.31;5024117;28;20512;-82
2022/06/25 11:47:36;;;;;;;2.53;2.33;;;;;;;25.55;59.27;157942.25;5018713;28;20460;-82